Time;durP1;ratioP1;P1;durP2;ratioP2;P2;SDS_P1;SDS_P2;PMS_P1;PMS_P2;Temp;Humidity;BMP_temperature;BMP_pressure;BME280_temperature;BME280_humidity;BME280_pressure;Samples;Min_cycle;Max_cycle;Signal;HPM_P1;HPM_P2
2023/01/03 00:02:18;;;;;;;17.83;16.13;;;;;;;3.87;100.00;93778.03;5091515;28;20245;-78
2023/01/03 00:04:44;;;;;;;17.10;15.43;;;;;;;3.95;100.00;93791.47;5090549;28;20232;-78
2023/01/03 00:07:09;;;;;;;14.23;12.93;;;;;;;4.12;100.00;93820.19;5091225;28;20204;-78
2023/01/03 00:09:35;;;;;;;16.17;14.77;;;;;;;4.13;100.00;93819.97;5090369;28;20232;-78
2023/01/03 00:14:44;;;;;;;14.30;13.20;;;;;;;4.08;100.00;93788.00;5090061;28;20270;-78
2023/01/03 00:17:11;;;;;;;14.20;12.90;;;;;;;4.16;100.00;93808.41;5091345;28;20196;-77
2023/01/03 00:19:40;;;;;;;14.80;13.53;;;;;;;4.24;100.00;93818.50;5089956;28;20280;-78
2023/01/03 00:22:07;;;;;;;14.47;13.33;;;;;;;4.14;100.00;93820.78;5090943;28;20731;-78
2023/01/03 00:24:32;;;;;;;16.87;15.17;;;;;;;4.03;100.00;93793.03;5090611;28;20232;-77
2023/01/03 00:26:58;;;;;;;14.50;13.40;;;;;;;4.12;100.00;93815.00;5090870;28;20222;-75
2023/01/03 00:29:23;;;;;;;15.90;14.50;;;;;;;3.99;100.00;93800.38;5090247;28;20234;-79
2023/01/03 00:31:48;;;;;;;13.70;12.70;;;;;;;4.12;100.00;93817.59;5091390;28;20207;-77
2023/01/03 00:34:14;;;;;;;13.60;12.47;;;;;;;4.01;100.00;93806.16;5089955;28;20247;-78
2023/01/03 00:36:40;;;;;;;13.17;12.20;;;;;;;4.15;100.00;93823.13;5089132;28;20197;-78
2023/01/03 00:39:06;;;;;;;13.77;12.63;;;;;;;4.10;100.00;93822.97;5089364;28;20224;-79
2023/01/03 00:41:31;;;;;;;14.50;13.10;;;;;;;4.13;100.00;93825.13;5088931;28;20196;-78
2023/01/03 00:43:57;;;;;;;14.63;13.43;;;;;;;4.14;100.00;93820.78;5089331;28;20248;-78
2023/01/03 00:46:23;;;;;;;13.20;12.20;;;;;;;4.16;100.00;93818.75;5089941;28;20235;-77
2023/01/03 00:48:49;;;;;;;14.90;13.60;;;;;;;3.77;100.00;93773.31;5089003;28;20193;-78
2023/01/03 00:51:26;;;;;;;13.23;12.33;;;;;;;3.99;100.00;93813.31;5090161;28;20229;-78
2023/01/03 00:53:54;;;;;;;14.03;12.93;;;;;;;4.01;100.00;93808.72;5089207;28;20180;-78
2023/01/03 00:56:22;;;;;;;13.73;12.73;;;;;;;4.03;100.00;93813.69;5089956;28;20207;-77
2023/01/03 00:58:48;;;;;;;13.03;12.03;;;;;;;4.14;100.00;93808.63;5089926;28;20180;-78
2023/01/03 01:01:15;;;;;;;14.43;13.13;;;;;;;4.15;100.00;93814.59;5090644;28;20215;-77
2023/01/03 01:03:44;;;;;;;14.30;13.20;;;;;;;4.10;100.00;93797.13;5089824;28;20192;-78
2023/01/03 01:06:14;;;;;;;16.00;14.33;;;;;;;4.07;100.00;93813.06;5069714;28;20232;-78
2023/01/03 01:08:39;;;;;;;16.17;14.77;;;;;;;4.09;100.00;93792.97;5069937;28;20208;-76
2023/01/03 01:11:05;;;;;;;16.63;14.87;;;;;;;4.13;100.00;93806.25;5069443;28;20237;-78
2023/01/03 01:13:32;;;;;;;16.63;15.17;;;;;;;3.99;100.00;93805.56;5070131;28;20201;-82
2023/01/03 01:16:09;;;;;;;16.33;14.80;;;;;;;4.08;100.00;93801.72;5087880;28;20235;-77
2023/01/03 01:18:35;;;;;;;16.10;14.43;;;;;;;3.89;100.00;93794.88;5088277;28;20187;-77
2023/01/03 01:21:07;;;;;;;16.47;14.97;;;;;;;3.94;100.00;93805.38;5089518;28;20239;-78
2023/01/03 01:23:35;;;;;;;16.70;15.13;;;;;;;3.91;100.00;93795.47;5089030;28;20197;-78
2023/01/03 01:26:02;;;;;;;19.30;15.67;;;;;;;4.03;100.00;93803.34;5089134;28;20278;-77
2023/01/03 01:28:28;;;;;;;17.33;15.50;;;;;;;4.00;100.00;93796.78;5089563;28;20218;-78
2023/01/03 01:30:57;;;;;;;16.13;14.50;;;;;;;4.10;100.00;93791.97;5088262;28;20208;-79
2023/01/03 01:33:22;;;;;;;14.93;13.73;;;;;;;3.96;100.00;93777.56;5089417;28;20239;-78
2023/01/03 01:35:48;;;;;;;13.77;12.73;;;;;;;4.03;100.00;93788.63;5089326;28;20224;-78
2023/01/03 01:38:13;;;;;;;14.20;13.00;;;;;;;4.05;100.00;93791.78;5089629;28;20188;-78
2023/01/03 01:40:38;;;;;;;13.40;12.40;;;;;;;3.99;100.00;93791.84;5089176;28;20220;-77
2023/01/03 01:46:26;;;;;;;13.07;12.20;;;;;;;3.97;100.00;93773.19;5088234;28;20283;-78
2023/01/03 01:48:56;;;;;;;13.37;12.37;;;;;;;4.07;100.00;93783.84;5089233;28;20185;-77
2023/01/03 01:51:23;;;;;;;13.50;12.40;;;;;;;3.94;100.00;93773.63;5089480;28;20223;-79
2023/01/03 01:53:51;;;;;;;13.77;12.77;;;;;;;4.10;100.00;93779.03;5089434;28;20193;-78
2023/01/03 01:56:50;;;;;;;13.17;12.17;;;;;;;4.13;100.00;93778.63;5088842;28;20189;-78
2023/01/03 01:59:15;;;;;;;13.50;12.60;;;;;;;3.99;100.00;93764.22;5050048;28;20240;-78
2023/01/03 02:01:43;;;;;;;14.20;13.20;;;;;;;4.03;100.00;93767.19;5089380;28;20179;-78
2023/01/03 02:04:22;;;;;;;13.47;12.47;;;;;;;3.98;100.00;93775.56;5088642;28;20232;-78
2023/01/03 02:06:48;;;;;;;14.03;12.90;;;;;;;3.85;100.00;93752.41;5089571;28;20218;-77
2023/01/03 02:09:13;;;;;;;13.40;12.50;;;;;;;3.97;100.00;93776.53;5089084;28;20248;-77
2023/01/03 02:11:41;;;;;;;13.57;12.47;;;;;;;3.95;100.00;93777.78;5089482;28;20176;-77
2023/01/03 02:14:25;;;;;;;13.27;12.30;;;;;;;3.88;100.00;93770.06;5088656;28;20232;-77
2023/01/03 02:16:50;;;;;;;11.70;10.90;;;;;;;3.90;100.00;93773.22;5090227;28;20173;-78
2023/01/03 02:19:53;;;;;;;12.40;11.63;;;;;;;3.95;100.00;93767.44;5093114;28;20235;-79
2023/01/03 02:23:03;;;;;;;12.57;11.80;;;;;;;3.90;100.00;93768.06;5092470;28;20210;-78
2023/01/03 02:26:13;;;;;;;11.70;11.00;;;;;;;3.89;100.00;93766.47;5035410;28;20266;-78
2023/01/03 02:29:16;;;;;;;14.07;12.97;;;;;;;3.90;100.00;93764.69;5091882;28;20742;-78
2023/01/03 02:31:47;;;;;;;13.13;12.30;;;;;;;3.71;100.00;93757.84;5072396;28;20220;-78
2023/01/03 02:34:52;;;;;;;13.07;12.13;;;;;;;3.85;100.00;93769.69;5072370;28;20315;-79
2023/01/03 02:37:38;;;;;;;13.57;12.37;;;;;;;3.77;100.00;93765.56;5060596;28;20201;-79
2023/01/03 02:40:32;;;;;;;13.30;12.30;;;;;;;3.79;100.00;93766.16;5083296;28;20238;-78
2023/01/03 02:43:04;;;;;;;13.87;12.87;;;;;;;3.72;100.00;93769.78;5076836;28;20272;-79
2023/01/03 02:45:51;;;;;;;13.23;12.23;;;;;;;3.72;100.00;93760.22;5091564;28;20232;-78
2023/01/03 02:48:47;;;;;;;13.93;12.70;;;;;;;3.67;100.00;93762.66;5093086;28;20185;-78
2023/01/03 02:51:38;;;;;;;13.87;12.77;;;;;;;3.73;100.00;93771.34;5124840;28;20251;-79
2023/01/03 02:54:09;;;;;;;14.00;12.70;;;;;;;3.67;100.00;93754.91;5079068;28;21055;-79
2023/01/03 02:56:40;;;;;;;14.97;13.67;;;;;;;3.77;100.00;93757.81;5092025;28;20180;-79
2023/01/03 02:59:13;;;;;;;15.00;13.67;;;;;;;3.46;100.00;93726.84;5091062;28;20224;-79
2023/01/03 03:01:43;;;;;;;13.67;12.67;;;;;;;3.60;100.00;93746.41;5092718;28;20219;-79
2023/01/03 03:04:11;;;;;;;12.53;11.73;;;;;;;3.61;100.00;93729.91;5091944;28;20232;-78
2023/01/03 03:07:02;;;;;;;11.67;10.87;;;;;;;3.62;100.00;93753.94;5092297;28;20268;-79
2023/01/03 03:09:29;;;;;;;12.23;11.50;;;;;;;3.64;100.00;93755.34;5091585;28;20231;-79
2023/01/03 03:14:49;;;;;;;12.10;11.13;;;;;;;3.69;100.00;93758.06;5092405;28;20303;-80
2023/01/03 03:17:21;;;;;;;12.50;11.60;;;;;;;3.72;100.00;93760.22;5091777;28;20244;-77
2023/01/03 03:25:58;;;;;;;11.90;11.13;;;;;;;3.54;100.00;93742.06;5091757;28;20235;-78
2023/01/03 03:28:33;;;;;;;11.40;10.70;;;;;;;3.59;100.00;93749.19;5089982;28;20189;-79
2023/01/03 03:31:24;;;;;;;11.77;11.00;;;;;;;3.63;100.00;93751.16;5090523;28;20255;-79
2023/01/03 03:34:08;;;;;;;11.73;10.93;;;;;;;3.68;100.00;93760.84;5091779;28;20181;-79
2023/01/03 03:36:39;;;;;;;13.57;12.57;;;;;;;3.65;100.00;93756.09;5091199;28;20184;-79
2023/01/03 03:44:58;;;;;;;14.10;12.90;;;;;;;3.63;100.00;93756.31;5090831;28;20237;-79
2023/01/03 03:44:59;;;;;;;13.40;12.43;;;;;;;3.52;100.00;93749.22;5091167;28;20235;-78
2023/01/03 03:47:28;;;;;;;14.27;13.13;;;;;;;3.47;100.00;93748.28;5090608;28;20244;-79
2023/01/03 03:49:59;;;;;;;15.50;14.30;;;;;;;3.53;100.00;93760.34;5091291;28;20233;-80
2023/01/03 03:52:28;;;;;;;14.23;12.83;;;;;;;3.57;100.00;93764.91;5090564;28;20203;-79
2023/01/03 03:55:02;;;;;;;16.43;14.70;;;;;;;3.61;100.00;93763.47;5091397;28;20224;-79
2023/01/03 03:57:36;;;;;;;16.43;14.77;;;;;;;3.43;100.00;93737.56;5091642;28;20186;-79
2023/01/03 04:00:10;;;;;;;18.33;15.07;;;;;;;3.52;100.00;93774.28;5091151;28;20227;-79
2023/01/03 04:02:37;;;;;;;18.03;16.37;;;;;;;3.38;100.00;93750.31;5091743;28;20184;-79
2023/01/03 04:05:06;;;;;;;18.43;16.53;;;;;;;3.44;100.00;93751.28;5091185;28;20302;-79
2023/01/03 04:07:33;;;;;;;16.47;14.87;;;;;;;3.39;100.00;93753.69;5091597;28;20238;-79
2023/01/03 04:09:59;;;;;;;16.93;14.80;;;;;;;3.49;100.00;93759.19;5091305;28;20228;-79
2023/01/03 04:12:24;;;;;;;18.27;16.30;;;;;;;3.51;100.00;93752.81;5091088;28;20224;-79
2023/01/03 04:14:49;;;;;;;17.67;15.77;;;;;;;3.42;100.00;93754.06;5091403;28;20288;-79
2023/01/03 04:17:15;;;;;;;16.93;15.40;;;;;;;2.98;100.00;93687.00;5091271;28;20215;-77
2023/01/03 04:19:41;;;;;;;18.77;16.70;;;;;;;3.27;100.00;93748.38;5090614;28;20232;-78
2023/01/03 04:22:06;;;;;;;18.87;17.13;;;;;;;3.48;100.00;93753.25;5089712;28;20185;-79
2023/01/03 04:24:32;;;;;;;18.67;16.87;;;;;;;3.54;100.00;93752.41;5090683;28;20913;-78
2023/01/03 04:26:57;;;;;;;31.07;21.73;;;;;;;3.51;100.00;93755.41;5091088;28;20208;-79
2023/01/03 04:29:22;;;;;;;28.40;20.97;;;;;;;3.25;100.00;93743.41;5090725;28;20228;-78
2023/01/03 04:31:48;;;;;;;34.13;20.40;;;;;;;3.33;100.00;93760.47;5091044;28;20222;-78
2023/01/03 04:34:13;;;;;;;28.30;19.27;;;;;;;3.22;100.00;93748.22;5090377;28;20229;-79
2023/01/03 04:36:39;;;;;;;30.60;19.30;;;;;;;3.26;100.00;93752.75;5090815;28;20188;-79
2023/01/03 04:39:04;;;;;;;25.30;19.13;;;;;;;3.31;100.00;93759.88;5090384;28;20228;-79
2023/01/03 04:41:29;;;;;;;26.10;19.20;;;;;;;3.25;100.00;93752.97;5090518;28;20185;-79
2023/01/03 04:44:01;;;;;;;20.10;17.90;;;;;;;3.24;100.00;93761.69;5090327;28;20184;-80
2023/01/03 04:46:35;;;;;;;20.30;16.43;;;;;;;3.35;100.00;93773.94;5089147;28;20208;-75
2023/01/03 04:49:01;;;;;;;17.40;15.80;;;;;;;3.27;100.00;93758.69;5089139;28;20181;-79
2023/01/03 04:51:27;;;;;;;17.90;16.17;;;;;;;3.24;100.00;93762.50;5087050;28;20502;-82
2023/01/03 04:53:52;;;;;;;19.43;16.67;;;;;;;3.15;100.00;93747.44;5085903;28;20193;-76
2023/01/03 04:56:23;;;;;;;20.47;18.40;;;;;;;3.33;100.00;93781.91;5088810;28;20231;-77
2023/01/03 04:58:48;;;;;;;20.77;18.77;;;;;;;3.08;100.00;93752.63;5089431;28;20184;-76
2023/01/03 05:01:14;;;;;;;24.23;20.47;;;;;;;3.27;100.00;93779.34;5089277;28;20211;-75
2023/01/03 05:03:39;;;;;;;22.30;20.10;;;;;;;3.25;100.00;93783.94;5088149;28;20205;-78
2023/01/03 05:06:07;;;;;;;20.63;17.30;;;;;;;3.08;100.00;93767.34;5088060;28;20228;-80
2023/01/03 05:08:33;;;;;;;20.90;18.13;;;;;;;3.22;100.00;93786.94;5088714;28;20222;-83
2023/01/03 05:10:59;;;;;;;21.60;19.30;;;;;;;3.14;100.00;93793.09;5088617;28;20224;-76
2023/01/03 05:13:25;;;;;;;19.07;17.07;;;;;;;3.16;100.00;93796.25;5089116;28;20266;-70
2023/01/03 05:15:50;;;;;;;18.77;16.87;;;;;;;3.03;100.00;93775.69;5088528;28;20232;-77
2023/01/03 05:18:16;;;;;;;19.00;17.20;;;;;;;3.12;100.00;93792.50;5089476;28;20195;-72
2023/01/03 05:26:13;;;;;;;24.83;19.20;;;;;;;3.06;100.00;93795.13;5089139;28;20219;-73
2023/01/03 05:28:40;;;;;;;27.43;22.13;;;;;;;3.09;100.00;93798.09;5089186;28;20172;-72
2023/01/03 05:31:05;;;;;;;30.87;23.13;;;;;;;3.17;100.00;93797.06;5088335;28;20224;-79
2023/01/03 05:33:31;;;;;;;26.27;21.83;;;;;;;3.15;100.00;93793.88;5089183;28;20246;-78
2023/01/03 05:35:57;;;;;;;28.20;22.30;;;;;;;3.44;100.00;93797.75;5088139;28;20307;-76
2023/01/03 05:38:22;;;;;;;24.83;20.13;;;;;;;3.33;100.00;93796.59;5085836;28;20197;-78
2023/01/03 05:40:49;;;;;;;26.10;19.70;;;;;;;3.35;100.00;93796.41;5086306;28;20233;-78
2023/01/03 05:43:15;;;;;;;22.97;18.57;;;;;;;3.20;100.00;93792.28;5088001;28;20200;-77
2023/01/03 05:45:40;;;;;;;21.83;19.60;;;;;;;3.26;100.00;93790.66;5086717;28;20295;-78
2023/01/03 05:48:07;;;;;;;19.53;16.73;;;;;;;3.10;100.00;93786.75;5087022;28;20181;-78
2023/01/03 05:50:33;;;;;;;20.30;17.80;;;;;;;3.13;100.00;93790.72;5086813;28;20243;-79
2023/01/03 05:52:58;;;;;;;17.73;15.93;;;;;;;3.12;100.00;93789.13;5086975;28;20181;-77
2023/01/03 05:55:24;;;;;;;15.93;13.67;;;;;;;3.09;100.00;93792.13;5085491;28;20300;-79
2023/01/03 05:57:51;;;;;;;13.67;12.57;;;;;;;3.14;100.00;93792.31;5086268;28;20184;-78
2023/01/03 06:00:17;;;;;;;16.27;14.77;;;;;;;3.22;100.00;93794.66;5084711;28;20219;-70
2023/01/03 06:02:42;;;;;;;13.13;12.17;;;;;;;3.29;100.00;93798.00;5086648;28;20188;-70
2023/01/03 06:05:08;;;;;;;18.53;16.47;;;;;;;3.37;100.00;93800.34;5086115;28;20240;-70
2023/01/03 06:07:35;;;;;;;18.67;16.70;;;;;;;3.51;100.00;93808.81;5087632;28;20252;-70
2023/01/03 06:10:00;;;;;;;14.80;13.50;;;;;;;3.48;100.00;93807.44;5088024;28;20228;-72
2023/01/03 06:12:27;;;;;;;17.73;15.83;;;;;;;3.32;100.00;93792.41;5088682;28;20196;-72
2023/01/03 06:14:52;;;;;;;17.07;15.30;;;;;;;3.48;100.00;93810.03;5086283;28;20224;-74
2023/01/03 06:20:02;;;;;;;17.13;15.33;;;;;;;3.41;100.00;93798.94;5085080;28;20227;-75
2023/01/03 06:22:27;;;;;;;24.37;16.27;;;;;;;3.51;100.00;93819.94;5085476;28;20189;-74
2023/01/03 06:24:52;;;;;;;18.83;16.67;;;;;;;3.46;100.00;93806.84;5086344;28;20216;-74
2023/01/03 06:27:18;;;;;;;20.33;18.23;;;;;;;3.49;100.00;93809.03;5088378;28;20189;-73
2023/01/03 06:29:43;;;;;;;23.47;19.23;;;;;;;3.50;100.00;93817.56;5087094;28;20236;-73
2023/01/03 06:32:08;;;;;;;20.43;18.23;;;;;;;3.67;100.00;93819.47;5088581;28;20188;-74
2023/01/03 06:34:34;;;;;;;27.83;20.27;;;;;;;3.68;100.00;93826.19;5085372;28;20252;-73
2023/01/03 06:36:59;;;;;;;25.10;20.00;;;;;;;3.66;100.00;93823.03;5086662;28;20253;-73
2023/01/03 06:39:24;;;;;;;28.37;20.83;;;;;;;3.67;100.00;93816.88;5088616;28;20228;-76
2023/01/03 06:41:50;;;;;;;33.67;21.17;;;;;;;3.71;100.00;93812.88;5086203;28;20193;-76
2023/01/03 06:44:15;;;;;;;29.23;21.20;;;;;;;3.76;100.00;93807.09;5086975;28;20240;-75
2023/01/03 06:54:58;;;;;;;36.33;23.50;;;;;;;3.96;100.00;93812.94;5085161;28;20232;-76
2023/01/03 06:57:24;;;;;;;30.43;24.00;;;;;;;3.93;100.00;93819.31;5086607;28;20260;-75
2023/01/03 06:59:49;;;;;;;33.07;24.63;;;;;;;4.05;100.00;93825.38;5085035;28;20227;-74
2023/01/03 07:02:14;;;;;;;31.40;23.80;;;;;;;4.02;100.00;93830.97;5088725;28;20193;-75
2023/01/03 07:04:40;;;;;;;32.10;23.50;;;;;;;3.85;100.00;93818.75;5090696;28;20229;-80
2023/01/03 07:07:05;;;;;;;29.17;22.67;;;;;;;4.11;100.00;93832.28;5091235;28;20208;-76
2023/01/03 07:09:31;;;;;;;28.87;22.23;;;;;;;4.27;100.00;93836.97;5090127;28;20295;-73
2023/01/03 07:11:56;;;;;;;28.33;22.80;;;;;;;4.19;100.00;93829.47;5090395;28;20207;-75
2023/01/03 07:14:21;;;;;;;32.07;23.40;;;;;;;4.42;100.00;93840.03;5091057;28;20228;-75
2023/01/03 07:16:47;;;;;;;31.27;21.63;;;;;;;4.24;100.00;93839.97;5091082;28;20189;-79
2023/01/03 07:19:16;;;;;;;28.13;21.53;;;;;;;4.23;100.00;93843.56;5088902;28;20232;-79
2023/01/03 07:21:42;;;;;;;27.67;21.17;;;;;;;4.11;100.00;93841.84;5090363;28;20197;-77
2023/01/03 07:24:11;;;;;;;33.50;22.63;;;;;;;4.10;100.00;93846.22;5089989;28;20822;-80
2023/01/03 07:26:36;;;;;;;24.80;22.10;;;;;;;4.12;100.00;93846.81;5091054;28;20231;-79
2023/01/03 07:29:04;;;;;;;29.03;22.40;;;;;;;4.29;100.00;93853.06;5089358;28;23228;-78
2023/01/03 07:31:31;;;;;;;29.47;24.20;;;;;;;4.46;100.00;93861.09;5090656;28;20185;-80
2023/01/03 07:33:57;;;;;;;34.17;24.63;;;;;;;4.33;100.00;93846.47;5089616;28;20189;-83
2023/01/03 07:36:23;;;;;;;33.03;23.93;;;;;;;4.38;100.00;93867.31;5092306;28;20257;-80
2023/01/03 07:38:48;;;;;;;29.80;23.73;;;;;;;4.37;100.00;93852.78;5093207;28;20193;-80
2023/01/03 07:41:15;;;;;;;37.10;25.73;;;;;;;4.48;100.00;93846.94;5091301;28;20200;-81
2023/01/03 07:43:46;;;;;;;36.17;25.83;;;;;;;4.36;100.00;93822.78;5090360;28;20212;-77
2023/01/03 07:46:24;;;;;;;47.40;28.97;;;;;;;4.73;100.00;93847.72;5069744;28;20217;-80
2023/01/03 07:48:52;;;;;;;41.43;28.57;;;;;;;4.81;100.00;93834.50;5069743;28;20193;-80
2023/01/03 07:51:19;;;;;;;40.03;26.73;;;;;;;5.07;100.00;93848.22;5069127;28;20297;-80
2023/01/03 07:53:48;;;;;;;34.83;26.53;;;;;;;5.19;100.00;93852.47;5070580;28;20211;-79
2023/01/03 07:56:18;;;;;;;40.90;29.20;;;;;;;5.32;100.00;93856.72;5086715;28;20268;-78
2023/01/03 07:58:45;;;;;;;33.57;26.00;;;;;;;5.32;100.00;93847.16;5090893;28;20223;-76
2023/01/03 08:01:16;;;;;;;39.13;27.60;;;;;;;5.46;100.00;93863.31;5089995;28;20189;-79
2023/01/03 08:03:42;;;;;;;38.90;27.87;;;;;;;5.52;100.00;93846.91;5090661;28;20851;-78
2023/01/03 08:06:11;;;;;;;37.40;27.80;;;;;;;5.67;100.00;93865.44;5090954;28;20224;-78
2023/01/03 08:08:37;;;;;;;41.20;27.03;;;;;;;5.85;100.00;93868.06;5090975;28;20177;-78
2023/01/03 08:13:47;;;;;;;34.63;27.00;;;;;;;5.89;100.00;93874.38;5089862;28;20192;-78
2023/01/03 08:16:14;;;;;;;36.50;25.97;;;;;;;5.97;100.00;93863.72;5090982;28;20252;-78
2023/01/03 08:18:40;;;;;;;33.77;26.27;;;;;;;6.05;100.00;93868.59;5089372;28;20248;-77
2023/01/03 08:21:07;;;;;;;32.13;26.27;;;;;;;6.35;98.49;93859.00;5090045;28;20220;-78
2023/01/03 08:23:33;;;;;;;33.93;24.33;;;;;;;6.50;97.26;93854.97;5088729;28;20223;-79
2023/01/03 08:26:08;;;;;;;33.80;24.53;;;;;;;6.36;97.71;93855.41;5089311;28;20224;-79
2023/01/03 08:28:34;;;;;;;27.03;21.43;;;;;;;6.23;98.79;93845.19;5090082;28;20195;-79
2023/01/03 08:31:05;;;;;;;29.80;21.50;;;;;;;6.14;99.09;93872.47;5091103;28;20287;-77
2023/01/03 08:33:36;;;;;;;27.40;22.77;;;;;;;6.33;98.46;93869.56;5090479;28;20185;-77
2023/01/03 08:36:04;;;;;;;26.67;20.93;;;;;;;6.40;96.75;93853.94;5089706;28;20208;-77
2023/01/03 08:38:35;;;;;;;27.17;22.23;;;;;;;6.50;97.03;93856.78;5090183;28;20185;-77
2023/01/03 08:41:02;;;;;;;27.63;22.00;;;;;;;6.38;97.81;93863.75;5090265;28;20224;-77
2023/01/03 08:43:34;;;;;;;25.30;21.57;;;;;;;6.60;97.32;93864.78;5090159;28;20194;-77
2023/01/03 08:45:59;;;;;;;32.53;23.07;;;;;;;6.72;95.72;93876.00;5090128;28;20239;-78
2023/01/03 08:48:25;;;;;;;28.33;22.27;;;;;;;6.80;95.62;93867.09;5091601;28;20188;-78
2023/01/03 08:50:51;;;;;;;29.80;23.57;;;;;;;6.78;95.19;93851.75;5090071;28;20288;-78
2023/01/03 08:53:16;;;;;;;28.47;23.97;;;;;;;6.66;96.60;93861.31;5091138;28;20190;-77
2023/01/03 08:55:43;;;;;;;33.20;24.40;;;;;;;6.63;96.37;93856.56;5089728;28;20232;-78
2023/01/03 08:58:08;;;;;;;39.43;24.63;;;;;;;6.64;97.30;93859.94;5090979;28;20215;-78
2023/01/03 09:00:36;;;;;;;35.13;25.73;;;;;;;7.00;95.42;93860.56;5089164;28;20280;-76
2023/01/03 09:03:01;;;;;;;33.13;24.77;;;;;;;7.04;94.23;93846.09;5091754;28;20200;-77
2023/01/03 09:05:27;;;;;;;33.27;25.83;;;;;;;7.25;93.93;93858.53;5090787;28;20970;-78
2023/01/03 09:07:53;;;;;;;30.43;24.17;;;;;;;7.34;93.00;93851.97;5090234;28;20668;-77
2023/01/03 09:10:19;;;;;;;33.73;25.77;;;;;;;7.41;93.15;93865.59;5089567;28;20250;-77
2023/01/03 09:12:45;;;;;;;30.77;23.90;;;;;;;7.56;92.12;93858.13;5088093;28;21026;-76
2023/01/03 09:15:10;;;;;;;34.73;24.97;;;;;;;7.59;91.48;93842.09;5089494;28;20244;-73
2023/01/03 09:17:36;;;;;;;33.30;23.97;;;;;;;7.79;91.16;93860.66;5088432;28;20177;-73
2023/01/03 09:20:01;;;;;;;32.27;25.37;;;;;;;7.60;91.08;93853.25;5089082;28;20304;-72
2023/01/03 09:22:27;;;;;;;33.93;26.70;;;;;;;7.67;91.21;93853.91;5090713;28;20176;-72
2023/01/03 09:24:54;;;;;;;37.97;26.40;;;;;;;7.80;90.83;93856.25;5089014;28;20224;-71
2023/01/03 09:27:20;;;;;;;35.20;26.40;;;;;;;7.71;89.72;93850.63;5090129;28;20186;-73
2023/01/03 09:29:45;;;;;;;37.33;26.97;;;;;;;7.50;90.11;93840.84;5089620;28;20232;-72
2023/01/03 09:32:11;;;;;;;36.43;26.97;;;;;;;7.65;89.72;93840.34;5090517;28;20234;-72
2023/01/03 09:34:36;;;;;;;40.33;27.70;;;;;;;7.84;88.42;93841.78;5088659;28;20252;-71
2023/01/03 09:37:03;;;;;;;34.73;25.67;;;;;;;7.76;88.40;93829.94;5090081;28;20219;-74
2023/01/03 09:39:28;;;;;;;36.03;27.53;;;;;;;7.84;88.20;93834.75;5089579;28;20252;-74
2023/01/03 09:44:39;;;;;;;37.73;28.17;;;;;;;8.14;86.33;93835.31;5088801;28;20231;-72
2023/01/03 09:47:05;;;;;;;39.30;27.30;;;;;;;7.95;87.52;93823.53;5089486;28;20205;-73
2023/01/03 09:49:34;;;;;;;44.63;28.17;;;;;;;8.03;87.17;93824.97;5088234;28;20217;-76
2023/01/03 10:03:43;;;;;;;34.93;27.30;;;;;;;8.79;83.96;93801.03;5090101;28;20194;-74
2023/01/03 10:06:08;;;;;;;38.37;28.60;;;;;;;8.81;84.08;93796.38;5068188;28;20369;-73
2023/01/03 10:08:37;;;;;;;37.00;27.73;;;;;;;8.84;83.77;93794.06;5069321;28;20189;-74
2023/01/03 10:11:11;;;;;;;38.63;26.80;;;;;;;8.82;83.57;93800.53;5087426;28;20292;-73
2023/01/03 10:14:06;;;;;;;39.80;28.47;;;;;;;8.67;84.04;93787.31;5088096;28;20188;-73
2023/01/03 10:16:34;;;;;;;42.03;28.90;;;;;;;8.64;85.45;93782.56;5067349;28;20292;-73
2023/01/03 10:19:40;;;;;;;39.03;28.30;;;;;;;8.77;84.38;93783.03;5070013;28;21013;-74
2023/01/03 10:22:11;;;;;;;37.50;27.77;;;;;;;8.82;85.00;93782.31;5088135;28;20266;-74
2023/01/03 10:24:47;;;;;;;36.23;27.40;;;;;;;8.81;83.74;93755.47;5086930;28;20239;-74
2023/01/03 10:27:14;;;;;;;35.10;27.03;;;;;;;9.05;82.81;93774.31;5088575;28;20195;-74
2023/01/03 10:29:40;;;;;;;38.83;28.80;;;;;;;9.22;82.21;93773.25;5088314;28;20252;-73
2023/01/03 10:32:23;;;;;;;42.93;28.03;;;;;;;9.27;80.86;93775.13;5090084;28;20191;-74
2023/01/03 10:35:12;;;;;;;45.03;30.77;;;;;;;9.53;80.29;93767.38;5088825;28;20240;-73
2023/01/03 10:37:41;;;;;;;43.40;30.20;;;;;;;9.56;79.60;93760.88;5089088;28;20303;-76
2023/01/03 10:40:08;;;;;;;40.27;30.67;;;;;;;9.48;80.32;93764.69;5090622;28;20311;-77
2023/01/03 10:42:35;;;;;;;45.50;30.53;;;;;;;9.64;78.97;93742.97;5093382;28;20189;-77
2023/01/03 10:45:09;;;;;;;40.37;29.87;;;;;;;9.75;78.33;93739.44;5092350;28;20231;-76
2023/01/03 10:47:34;;;;;;;48.00;30.70;;;;;;;9.79;78.86;93745.75;5090635;28;20722;-76
2023/01/03 10:50:03;;;;;;;39.73;28.53;;;;;;;9.78;78.01;93738.97;5091974;28;20306;-77
2023/01/03 10:52:36;;;;;;;48.20;30.70;;;;;;;9.78;77.78;93752.00;5092110;28;20185;-77
2023/01/03 10:55:17;;;;;;;52.43;33.07;;;;;;;9.66;79.05;93745.34;5091455;28;20229;-76
2023/01/03 10:57:58;;;;;;;60.63;33.13;;;;;;;9.57;79.12;93733.78;5092831;28;20188;-76
2023/01/03 11:00:37;;;;;;;45.47;31.97;;;;;;;10.01;77.55;93737.09;5092254;28;20224;-76
2023/01/03 11:03:15;;;;;;;48.40;33.17;;;;;;;10.07;76.68;93731.69;5092027;28;20234;-77
2023/01/03 11:05:42;;;;;;;49.90;33.37;;;;;;;10.07;77.08;93726.47;5091470;28;20248;-77
2023/01/03 11:08:32;;;;;;;51.77;34.13;;;;;;;10.37;75.53;93715.50;5092645;28;20196;-76
2023/01/03 11:10:59;;;;;;;49.90;32.93;;;;;;;10.61;74.49;93727.97;5092020;28;20221;-75
2023/01/03 11:13:38;;;;;;;49.40;34.50;;;;;;;10.57;74.25;93724.25;5091646;28;20180;-77
2023/01/03 11:16:15;;;;;;;48.90;33.97;;;;;;;10.65;74.34;93720.38;5091286;28;20235;-76
2023/01/03 11:18:43;;;;;;;49.60;34.00;;;;;;;10.80;73.06;93716.03;5091747;28;20218;-71
2023/01/03 11:21:22;;;;;;;55.03;34.07;;;;;;;10.50;73.55;93678.53;5091616;28;20212;-72
2023/01/03 11:24:15;;;;;;;49.03;34.53;;;;;;;10.70;76.58;93715.22;5092035;28;20183;-77
2023/01/03 11:27:01;;;;;;;50.43;34.40;;;;;;;10.82;73.12;93716.59;5091977;28;20217;-77
2023/01/03 11:29:58;;;;;;;54.63;37.40;;;;;;;10.77;73.85;93710.56;5091454;28;20252;-76
2023/01/03 11:33:02;;;;;;;59.93;36.97;;;;;;;10.81;73.25;93707.19;5091922;28;20198;-76
2023/01/03 11:35:45;;;;;;;59.37;38.33;;;;;;;10.95;71.87;93681.41;5090926;28;20300;-76
2023/01/03 11:38:18;;;;;;;56.50;39.27;;;;;;;10.94;72.74;93701.50;5091044;28;20279;-76
2023/01/03 11:41:05;;;;;;;72.10;41.47;;;;;;;10.97;72.21;93695.75;5091564;28;20213;-76
2023/01/03 11:43:52;;;;;;;71.60;41.43;;;;;;;10.66;74.77;93688.81;5089869;28;20200;-76
2023/01/03 11:46:23;;;;;;;67.27;40.53;;;;;;;10.77;73.90;93689.66;5091094;28;20882;-76
2023/01/03 11:49:03;;;;;;;63.67;40.17;;;;;;;10.79;73.13;93690.19;5091829;28;20242;-77
2023/01/03 11:52:04;;;;;;;69.40;41.20;;;;;;;10.84;72.69;93691.00;5092391;28;21210;-76
2023/01/03 11:54:29;;;;;;;70.47;44.60;;;;;;;10.82;73.11;93687.84;5090870;28;20231;-77
2023/01/03 11:57:03;;;;;;;67.33;42.73;;;;;;;10.84;72.89;93675.34;5091931;28;20193;-76
2023/01/03 11:59:50;;;;;;;68.83;43.63;;;;;;;10.76;72.33;93652.31;5091468;28;20228;-76
2023/01/03 12:02:31;;;;;;;67.57;44.50;;;;;;;11.20;71.63;93677.06;5090148;28;20211;-77
2023/01/03 12:05:14;;;;;;;68.77;44.73;;;;;;;11.24;71.10;93674.72;5091485;28;20216;-77
2023/01/03 12:07:56;;;;;;;77.63;44.80;;;;;;;11.09;70.81;93662.41;5090457;28;20202;-76
2023/01/03 12:10:47;;;;;;;71.80;44.07;;;;;;;10.80;71.55;93635.06;5089685;28;20214;-75
2023/01/03 12:13:15;;;;;;;75.63;45.40;;;;;;;11.20;70.81;93674.47;5089308;28;20277;-76
2023/01/03 12:15:46;;;;;;;78.13;47.40;;;;;;;11.10;71.30;93661.34;5089370;28;20287;-76
2023/01/03 12:18:27;;;;;;;85.63;48.20;;;;;;;11.28;70.63;93676.56;5090226;28;20207;-77
2023/01/03 12:21:01;;;;;;;84.80;49.80;;;;;;;11.24;70.42;93664.25;5089610;28;21658;-76
2023/01/03 12:23:48;;;;;;;85.73;51.20;;;;;;;11.19;70.54;93672.88;5090893;28;20193;-76
2023/01/03 12:26:15;;;;;;;87.87;51.87;;;;;;;11.28;69.11;93675.78;5091639;28;21144;-71
2023/01/03 12:28:47;;;;;;;93.43;54.67;;;;;;;11.28;69.35;93666.09;5090825;28;21004;-72